Terminal Aerodrome Forecast
Issued by NWS

Home | Current Version | Previous Version | Text Only | Print | Product List | Glossary On
Versions: 1 2 3 4 5 6 7 8 9 10 11 12 13
000
FTAK31 PAJN 282331
TAFAPG
TAF
PAPG 282331Z 2900/2924 06005KT P6SM SCT035 BKN070 OVC090
     FM290600 10004KT P6SM BKN070 BKN100
     FM291200 06003KT P6SM VCSH BKN050 OVC070
     FM291800 05003KT 5SM -SHRA BR BKN020 BKN030 OVC050
     FM292200 05004KT 4SM -SHRA BR BKN015 OVC025
      AMD LTD TO CLD VIS AND WIND 2906/2915=

USA.gov is the U.S. government's official web portal to all federal, state and local government web resources and services.